NATIONALE - Nord-Est FAUCOGNEY (70) - H

Date : 17/04/2011
Distance : 3,800 km

Place Nom Licence Catégorie Club Temps min/km CN à J-60 Points Différence Nouveau CN
1 DEVILLE Nelly 2401 D60 5402LO 0:47:51 12'35 4368 4702 +334 4597
2 ANNE Brigitte 1672 D60 0111RA 1:00:41 15'58 3620 3708 +88 3556
3 KENANE Abdelkader 1448 H70 5501LO 1:02:08 16'21 4238 3621 -617 4285
4 LABEUR Roselyne 905 D60 7707IF 1:02:25 16'25 2768 3605 +837 3214
5 BERGER M-Jose 7182 D60 5703LO 1:02:59 16'34 3252 3572 +320 3264
6 CHALOPIN Catherine 3674 D60 2105BO 1:03:31 16'42 3763 3542 -221 3732
7 DIEUDONNE Madeleine 1380 D60 7808IF 1:03:56 16'49 3910 3519 -391 3923
8 HABERKORN Didier 2716 H70 2105BO 1:05:05 17'07 3520 3457 -63 3531
9 RIFFARD M-Lucie 2446 D65 5702LO 1:05:49 17'19 2875 3419 +544 3003
10 MOULIERE M-Bernadette 2888 D65 0207PI 1:07:46 17'50 3138 3320 +182 3271
11 ROBERT Francoise 6491 D60 6913RA 1:08:04 17'54 3737 3306 -431 3533
12 JEANPIERRE M-Therese 3302 D65 8809LO 1:09:05 18'10 3218 3257 +39 3205
13 ABISSE Gisele 701 D65 2508FC 1:10:28 18'32 3000 3193 +193 3133
14 ANTOINE Regis 1276 H70 7108BO 1:10:32 18'33 3679 3190 -489 3819
15 JEANNERET Christelle 23315 D40 7109BO 1:11:44 18'52 2760 3137 +377 2911
16 LEMERCIER Jocelyne 2474 D60 5407LO 1:13:37 19'22 2752 3056 +304 2849
17 MAILLARD Chantal 1458 D45 8807LO 1:14:13 19'31 3032 2850
18 GARROT Marie Claire 8115 D45 2105BO 1:15:42 19'55 2724 2972 +248 2853
19 BLASCO Nicole 395 D65 2406AQ 1:19:12 20'50 3822 2841 -981 3279
20 VOGT Christiane 2557 D60 6709AL 1:19:31 20'55 3610 2830 -780 3610
21 AST Claudine 2511 D65 8809LO 1:19:41 20'58 2250 2824 +574 2440
22 ENARD Monique 2664 D60 2101BO 1:19:59 21'02 3466 2813 -653 3325
23 BEAUVISAGE Fabienne 13740 D45 7807IF 1:20:29 21'10 2615 2796 +181 2739
24 FINO Béatrice 1674 D40 0111RA 1:20:33 21'11 2116 2793 +677 2244
25 THIERRY-FISCHER Chri 363 D60 6803AL 1:20:39 21'13 3139 2790 -349 3139
26 THIEBAULD Georges 4389 H70 8809LO 1:21:36 21'28 2995 2757 -238 3044
27 HITZ Rene 1883 H70 6804AL 1:21:36 21'28 1991 2757 +766 2444
28 ROLLET Marie-Madeleine 2413 D65 5415LO 1:22:43 21'46 2598 2720 +122 2462
29 MERIGUET Valérie 16687 D40 7807IF 1:22:47 21'47 2177 2718 +541 2749
30 RICHARD Nicole 14245 D60 0207PI 1:25:07 22'23 3274 2643 -631 3294
31 DESAINTJAN Claude 2547 H70 6804AL 1:26:42 22'48 2738 2595 -143 2920
32 MULLER Raymond 352 H70 9006FC 1:28:46 23'21 2890 2535 -355 2818
33 LAURENT Therese 725 D70 2508FC 1:28:48 23'22 1891 2534 +643 2177
34 BELLE Emmanuelle 8258 D35 6205NO 1:32:55 24'27 0 2421 2412
35 ETIENNE Bernadette 15324 D60 8807LO 1:39:00 26'03 2522 2273 -249 2338
36 BEGU Aurore 9042 D35 7707IF 1:43:11 27'09 1963 2181 +218 2241
37 MOUGEL Danielle 7910 D60 8809LO 1:44:01 27'22 1748 2163 +415 1989
38 LUDEWIG-JAMES Carol 15894 D70 5907NO 1:48:32 28'33 2160 2073 -87 2414
39 GAWSEWITCH Gerald 3370 H70 7707IF 1:49:30 28'48 1786 2055 +269 2371
40 GIRARD Florence 22478 D40 2508FC 1:59:08 31'21 0 1889 1813
41 THIEBAULT M-Paule 4490 D60 6804AL 2:00:11 31'37 2003 1872 -131 1967
42 DODIN Genevieve 4392 D60 8809LO 2:07:08 33'27 2315 1770 -545 2387
43 BAUDOIN Annie 16634 D60 0615AZ 2:15:42 35'42 2634 1658 -976 2494
44 ALLANCON Claudine 14632 D60 2906BR 2:15:48 35'44 2103 1657 -446 2058
45 VESCOVO Odile 368 D65 6803AL 2:17:49 36'16 2306 1633 -673 2304
46 PEETERS Simone 295 D70 7703IF 2:20:44 37'02 2537 1599 -938 2542
47 JOLY Francoise 2487 D65 8807LO 2:21:46 37'18 1691 1587 -104 1657
48 BEGUINOT M-Louise 1444 D65 5501LO 2:31:45 39'56 2012 1483 -529 1980
RIFFARD J-Claude 2445 H70 5702LO pm None 2854 0 3101
BASTIEN-FATH Nicole 8954 D65 5402LO pm None 2265 0 2249
PETITNICOLAS Valérie 23620 D40 8807LO pm None 0 0 0
BEGUINOT Jacques 1443 H70 5501LO pm None 2978 0 3032
SIMONET Marie 931 D60 7707IF pm None 2619 0 2793
HODSON Michael 2404 H70 5402LO pm None 3872 0 2715
JOLY Mauricette 310 D50 6803AL pm None 0 2451
DESAINTJAN Alice 2546 D70 6804AL pm None 1545 0 2086
BREMAUD Veronique 5804 D50 1202MP pm None 2415 0 2555
FISCHER M-Dominique 340 D50 6803AL pm None 2377 0 2255
LAZAROWICZ Rose-Marie 3598 D60 7512IF pm None 1793 0 1911